createdAt,value
2018-09-26T00:01:32.848Z,83.80
2018-09-26T00:06:36.003Z,84.50
2018-09-26T00:11:38.995Z,85.40
2018-09-26T00:16:42.012Z,85.40
2018-09-26T00:21:45.033Z,85.80
2018-09-26T00:26:48.012Z,86.40
2018-09-26T00:31:50.999Z,87.40
2018-09-26T00:36:54.015Z,86.90
2018-09-26T00:41:57.017Z,87.30
2018-09-26T00:47:00.032Z,87.60
2018-09-26T00:52:03.783Z,86.90
2018-09-26T00:57:06.759Z,86.50
2018-09-26T01:02:09.736Z,87.10
2018-09-26T01:07:12.730Z,86.90
2018-09-26T01:12:15.753Z,87.70
2018-09-26T01:17:18.776Z,87.10
2018-09-26T01:22:21.776Z,87.30
2018-09-26T01:27:24.799Z,86.70
2018-09-26T01:32:27.761Z,86.70
2018-09-26T01:37:30.772Z,86.60
2018-09-26T01:42:33.776Z,86.70
2018-09-26T01:47:36.889Z,86.50
2018-09-26T01:52:39.905Z,86.20
2018-09-26T01:57:42.928Z,85.80
2018-09-26T02:02:45.960Z,85.70
2018-09-26T02:07:48.975Z,85.60
2018-09-26T02:12:52.059Z,85.40
2018-09-26T02:17:55.168Z,84.70
2018-09-26T02:22:58.148Z,84.70
2018-09-26T02:28:03.909Z,85.40
2018-09-26T02:33:07.037Z,85.90
2018-09-26T02:38:09.994Z,86.40
2018-09-26T02:43:12.988Z,86.60
2018-09-26T02:48:21.603Z,87.20
2018-09-26T02:53:24.588Z,87.70
2018-09-26T02:58:27.584Z,87.90
2018-09-26T03:03:30.655Z,88.00
2018-09-26T03:08:33.588Z,87.60
2018-09-26T03:13:36.555Z,87.20
2018-09-26T03:18:39.544Z,87.50
2018-09-26T03:23:42.539Z,87.50
2018-09-26T03:28:45.537Z,88.10
2018-09-26T03:33:48.597Z,88.60
2018-09-26T03:38:51.594Z,89.20
2018-09-26T03:43:54.567Z,90.00
2018-09-26T03:48:57.547Z,89.60
2018-09-26T03:54:02.687Z,89.10
2018-09-26T03:59:06.100Z,88.80
2018-09-26T04:04:09.062Z,89.20
2018-09-26T04:09:12.072Z,88.60
2018-09-26T04:14:15.048Z,89.60
2018-09-26T04:19:18.056Z,89.90
2018-09-26T04:24:20.995Z,89.30
2018-09-26T04:29:24.035Z,89.60
2018-09-26T04:34:27.018Z,90.00
2018-09-26T04:39:30.053Z,89.90
2018-09-26T04:44:33.106Z,90.60
2018-09-26T04:49:36.650Z,90.80
2018-09-26T04:54:39.619Z,90.40
2018-09-26T04:59:42.615Z,90.00
2018-09-26T05:04:45.567Z,90.40
2018-09-26T05:09:48.550Z,89.60
2018-09-26T05:14:51.633Z,89.40
2018-09-26T05:19:54.634Z,90.00
2018-09-26T05:24:57.628Z,90.60
2018-09-26T05:30:01.623Z,91.00
2018-09-26T05:35:04.745Z,90.60
2018-09-26T05:40:07.766Z,89.70
2018-09-26T05:45:10.820Z,88.20
2018-09-26T05:50:13.879Z,87.80
2018-09-26T05:55:16.864Z,87.50
2018-09-26T06:00:19.898Z,88.00
2018-09-26T06:05:22.926Z,86.30
2018-09-26T06:10:25.896Z,84.40
2018-09-26T06:15:28.895Z,82.70
2018-09-26T06:20:31.891Z,82.20
2018-09-26T06:25:34.956Z,81.40
2018-09-26T06:30:38.058Z,77.70
2018-09-26T06:35:41.075Z,76.70
2018-09-26T06:40:44.079Z,76.90
2018-09-26T06:45:47.849Z,75.90
2018-09-26T06:50:50.968Z,74.70
2018-09-26T06:55:53.951Z,73.10
2018-09-26T07:00:56.932Z,72.70
2018-09-26T07:05:59.922Z,71.70
2018-09-26T07:11:03.618Z,73.40
2018-09-26T07:16:06.688Z,73.50
2018-09-26T07:21:10.213Z,72.50
2018-09-26T07:26:13.187Z,69.70
2018-09-26T07:31:16.172Z,66.50
2018-09-26T07:36:19.233Z,65.00
2018-09-26T07:41:22.271Z,63.80
2018-09-26T07:46:26.263Z,63.80
2018-09-26T07:51:29.439Z,60.50
2018-09-26T07:56:32.567Z,60.60
2018-09-26T08:01:35.651Z,57.50
2018-09-26T08:06:38.645Z,56.10
2018-09-26T08:11:41.644Z,58.10
2018-09-26T08:16:44.631Z,58.80
2018-09-26T08:21:47.636Z,58.60
2018-09-26T08:26:50.620Z,58.70
2018-09-26T08:31:53.707Z,58.30
2018-09-26T08:36:56.775Z,57.20
2018-09-26T08:41:59.745Z,56.10
2018-09-26T08:47:05.739Z,53.90
2018-09-26T08:52:08.749Z,53.10
2018-09-26T08:57:11.807Z,52.10
2018-09-26T09:02:15.680Z,51.40
2018-09-26T09:07:18.647Z,50.50
2018-09-26T09:12:21.659Z,51.80
2018-09-26T09:17:24.672Z,51.70
2018-09-26T09:22:27.748Z,50.60
2018-09-26T09:27:30.790Z,52.30
2018-09-26T09:32:35.226Z,53.00
2018-09-26T09:37:38.215Z,51.90
2018-09-26T09:42:41.248Z,49.20
2018-09-26T09:47:44.260Z,44.80
2018-09-26T09:52:47.239Z,45.20
2018-09-26T10:05:44.293Z,41.10
2018-09-26T10:10:47.329Z,40.50
2018-09-26T10:15:50.321Z,40.70
2018-09-26T10:20:53.265Z,38.50
2018-09-26T10:25:56.336Z,37.30
2018-09-26T10:30:59.281Z,37.10
2018-09-26T10:36:03.818Z,36.30
2018-09-26T10:41:06.831Z,37.50
2018-09-26T10:46:09.808Z,38.70
2018-09-26T10:51:12.756Z,38.80
2018-09-26T10:56:15.737Z,36.70
2018-09-26T11:01:18.676Z,36.80
2018-09-26T11:06:21.631Z,36.20
2018-09-26T11:11:24.676Z,36.50
2018-09-26T11:16:27.689Z,35.80
2018-09-26T11:21:30.623Z,36.10
2018-09-26T11:26:33.606Z,37.30
2018-09-26T11:31:36.602Z,37.20
2018-09-26T11:36:39.535Z,34.70
2018-09-26T11:41:42.508Z,35.00
2018-09-26T11:46:45.512Z,33.60
2018-09-26T11:51:48.494Z,35.00
2018-09-26T11:56:51.407Z,34.90
2018-09-26T12:01:54.484Z,33.90
2018-09-26T12:06:57.949Z,34.30
2018-09-26T12:12:03.217Z,33.60
2018-09-26T12:17:06.477Z,34.50
2018-09-26T12:22:09.560Z,34.00
2018-09-26T12:27:12.705Z,32.10
2018-09-26T12:32:15.714Z,33.50
2018-09-26T12:37:18.710Z,32.40
2018-09-26T12:42:21.730Z,32.60
2018-09-26T12:47:24.671Z,32.90
2018-09-26T12:52:27.594Z,32.80
2018-09-26T12:57:30.579Z,32.20
2018-09-26T13:02:33.637Z,32.50
2018-09-26T13:07:36.584Z,31.80
2018-09-26T13:12:39.534Z,32.00
2018-09-26T13:17:42.483Z,30.90
2018-09-26T13:22:45.456Z,30.40
2018-09-26T13:27:48.391Z,30.70
2018-09-26T13:32:51.980Z,31.00
2018-09-26T13:37:54.901Z,31.00
2018-09-26T13:42:57.872Z,31.70
2018-09-26T13:48:01.570Z,31.70
2018-09-26T13:53:04.521Z,31.50
2018-09-26T13:58:07.540Z,32.00
2018-09-26T14:03:10.497Z,33.60
2018-09-26T14:08:13.523Z,32.30
2018-09-26T14:13:16.474Z,32.60
2018-09-26T14:18:19.492Z,32.60
2018-09-26T14:23:22.361Z,32.80
2018-09-26T14:28:25.386Z,33.70
2018-09-26T14:33:28.318Z,32.10
2018-09-26T14:38:31.250Z,32.40
2018-09-26T14:43:34.227Z,31.20
2018-09-26T14:48:37.206Z,32.00
2018-09-26T14:53:40.199Z,32.60
2018-09-26T14:58:43.166Z,32.40
2018-09-26T15:03:46.105Z,32.00
2018-09-26T15:08:49.203Z,32.20
2018-09-26T15:13:52.120Z,32.50
2018-09-26T15:18:55.088Z,33.20
2018-09-26T15:23:58.262Z,32.30
2018-09-26T15:29:03.622Z,32.30
2018-09-26T15:34:06.722Z,33.10
2018-09-26T15:39:10.476Z,34.00
2018-09-26T15:44:13.422Z,34.20
2018-09-26T15:49:17.187Z,34.30
2018-09-26T15:54:20.164Z,34.80
2018-09-26T15:59:23.211Z,34.70
2018-09-26T16:04:26.781Z,34.50
2018-09-26T16:09:29.686Z,35.60
2018-09-26T16:14:32.634Z,37.60
2018-09-26T16:19:35.675Z,37.50
2018-09-26T16:24:38.750Z,37.80
2018-09-26T16:29:41.815Z,37.90
2018-09-26T16:34:44.857Z,38.90
2018-09-26T16:39:47.795Z,40.00
2018-09-26T16:44:50.766Z,39.90
2018-09-26T16:49:53.803Z,41.60
2018-09-26T16:54:56.805Z,41.40
2018-09-26T16:59:59.989Z,43.00
2018-09-26T17:05:03.840Z,43.80
2018-09-26T17:10:06.926Z,45.30
2018-09-26T17:15:10.161Z,46.40
2018-09-26T17:20:13.267Z,48.30
2018-09-26T17:25:16.223Z,49.60
2018-09-26T17:30:19.220Z,49.70
2018-09-26T17:35:22.343Z,51.10
2018-09-26T17:40:25.343Z,51.10
2018-09-26T17:45:28.470Z,51.40
2018-09-26T17:50:31.379Z,53.00
2018-09-26T17:55:34.412Z,55.50
2018-09-26T18:00:37.504Z,56.40
2018-09-26T18:05:40.506Z,57.20
2018-09-26T18:10:43.524Z,58.70
2018-09-26T18:15:46.847Z,59.30
2018-09-26T18:20:49.949Z,59.50
2018-09-26T18:25:53.005Z,62.10
2018-09-26T18:30:55.996Z,62.60
2018-09-26T18:41:08.279Z,61.00
2018-09-26T18:46:11.433Z,63.70
2018-09-26T18:51:14.396Z,65.20
2018-09-26T18:56:17.378Z,66.30
2018-09-26T19:01:20.359Z,66.80
2018-09-26T19:06:23.378Z,68.60
2018-09-26T19:11:26.549Z,70.00
2018-09-26T19:16:30.164Z,70.60
2018-09-26T19:21:33.272Z,70.30
2018-09-26T19:26:36.204Z,70.80
2018-09-26T19:31:39.184Z,71.20
2018-09-26T19:36:42.213Z,72.00
2018-09-26T19:41:45.301Z,71.80
2018-09-26T19:46:48.284Z,73.20
2018-09-26T19:51:51.745Z,74.10
2018-09-26T19:56:54.832Z,74.50
2018-09-26T20:01:57.902Z,73.20
2018-09-26T20:07:01.669Z,73.20
2018-09-26T20:12:05.625Z,73.80
2018-09-26T20:17:08.872Z,73.50
2018-09-26T20:22:11.924Z,74.30
2018-09-26T20:27:15.207Z,74.50
2018-09-26T20:32:18.095Z,75.00
2018-09-26T20:37:21.077Z,75.70
2018-09-26T20:42:24.091Z,75.80
2018-09-26T20:47:27.229Z,75.20
2018-09-26T20:52:30.300Z,76.00
2018-09-26T20:57:33.308Z,76.50
2018-09-26T21:02:36.296Z,76.50
2018-09-26T21:07:40.110Z,76.60
2018-09-26T21:12:43.148Z,77.00
2018-09-26T21:17:46.148Z,78.30
2018-09-26T21:22:49.398Z,78.50
2018-09-26T21:27:52.348Z,79.10
2018-09-26T21:32:55.541Z,79.60
2018-09-26T21:37:58.660Z,80.00
2018-09-26T21:43:03.607Z,80.10
2018-09-26T21:48:06.556Z,79.70
2018-09-26T21:53:09.560Z,78.60
2018-09-26T21:58:12.791Z,79.40
2018-09-26T22:03:16.000Z,79.70
2018-09-26T22:08:19.355Z,79.90
2018-09-26T22:13:22.912Z,80.90
2018-09-26T22:18:26.179Z,80.40
2018-09-26T22:23:29.427Z,81.30
2018-09-26T22:28:33.113Z,82.10
2018-09-26T22:33:36.221Z,83.30
2018-09-26T22:38:39.483Z,83.80
2018-09-26T22:43:42.688Z,83.90
2018-09-26T22:48:46.139Z,84.10
2018-09-26T22:53:49.556Z,83.50
2018-09-26T22:58:52.930Z,83.50
2018-09-26T23:03:56.760Z,83.50
2018-09-26T23:08:59.852Z,81.60
2018-09-26T23:14:04.496Z,84.80
2018-09-26T23:19:07.732Z,85.40
2018-09-26T23:24:10.872Z,85.80
2018-09-26T23:29:13.947Z,86.40
2018-09-26T23:34:17.021Z,86.50
2018-09-26T23:39:20.286Z,85.80
2018-09-26T23:44:23.983Z,86.20
2018-09-26T23:49:27.085Z,85.20
2018-09-26T23:54:30.214Z,86.50
2018-09-26T23:59:33.611Z,87.20
